Bida Airport

DNBI · Niger, 尼日利亚

METAR DNBI · Bida Airport

25 四月 04:00 LT
29m
使用的METAR站距离机场137 km。
罗盘
风向 的 风向 010° Bida Airport 4/22
风: 3 kt, 1 beaufort

3 kt

1 kt
改变
0 ft 1.000 2.000 3.000 4.000 5.000
CAVOK
METAR DNAA 250300Z 01003KT CAVOK 26/25 Q1009 NOSIG

METAR Bida Airport - DNBI

Bida Airport是,尼日利亚中的小机场。 该机场位于纬度9,10306和经度6,01482。 该机场有一条跑道: 4/22. 本场的ICAO机场代码为DNBI。 机场在Kano FIR中。

该航空气象观测是针对纳姆迪·阿齐基韦国际机场在2024年4月25日 04:00, 当地时间进行的。

机场观察

风向为010°,速度为3 kt。

天气为CAVOK。这意味着在5.000 ft或MSA(最低安全高度)以下(以较高者为准)以下没有云。这也意味着没有观测到积雨云或高耸的积云,可见度为10 km 或者更多或更高。此外,不会有雾,降雨或其他重要天气。

温度和风寒是26 °C。 露点为25 °C,相对湿度为94%。 海平面上的气压为1009 hPa (QNH)。

白天

今天,太阳从06:21升起,在18:46降落。 这适用于Bida Airport,世界夏令时可能有所不同。 当地时间与世界标准时间之间的时差为+1 小时。 夏令时目前正在进行中。

公司介绍

我们没有关于这个机场的公司信息。

体会

到Vliegles.nl去找飞行课程,跳伞和其他飞行体验。 浏览页面,了解Bida Airport附近所有可用的活动。 你也可以使用搜索功能来寻找你所在地附近的特定飞行课程、跳伞或其他飞行体验。

跑道

Id 标题 侧风 逆风 侧风 %
4/22 035°-215° 1 kt 3 kt 42 %

逆风成分最大的方向会被突出显示,并用于横风计算。 这并不一定意味着这个方向在使用。

温度 & 天气

温度 26 °C
露点 25 °C
相对湿度 94%
Kp-index 0 (0-9)

白天

日出
06:16 (1:47)
中午
12:28
日落
18:41

小工具

你想在你的网站上有一个关于Bida Airport的当前航空天气(METAR)的小部件吗?

显示HTML代码
报告变更